createdAt,value
2022-09-28T00:00:33.154Z,4.43
2022-09-28T00:03:02.578Z,3.80
2022-09-28T00:05:32.888Z,6.72
2022-09-28T00:08:02.284Z,5.53
2022-09-28T00:10:31.429Z,5.32
2022-09-28T00:13:01.672Z,4.45
2022-09-28T00:15:33.463Z,4.15
2022-09-28T00:18:02.488Z,4.35
2022-09-28T00:20:31.594Z,4.18
2022-09-28T00:23:00.745Z,5.35
2022-09-28T00:25:31.159Z,5.18
2022-09-28T00:28:00.198Z,3.05
2022-09-28T00:30:29.314Z,6.43
2022-09-28T00:32:59.746Z,3.95
2022-09-28T00:35:29.756Z,3.25
2022-09-28T00:37:58.972Z,3.63
2022-09-28T00:40:28.068Z,4.20
2022-09-28T00:42:57.186Z,2.90
2022-09-28T00:45:28.055Z,4.25
2022-09-28T00:48:00.991Z,2.90
2022-09-28T00:50:33.917Z,3.53
2022-09-28T00:53:10.421Z,3.88
2022-09-28T00:55:44.214Z,3.08
2022-09-28T00:58:19.566Z,2.38
2022-09-28T01:00:55.637Z,3.80
2022-09-28T01:03:26.899Z,3.15
2022-09-28T01:05:59.855Z,7.88
2022-09-28T01:08:33.047Z,2.40
2022-09-28T01:11:02.737Z,2.90
2022-09-28T01:13:37.873Z,1.77
2022-09-28T01:16:15.370Z,7.13
2022-09-28T01:18:59.910Z,2.85
2022-09-28T01:21:54.523Z,3.40
2022-09-28T01:28:38.251Z,2.85
2022-09-28T01:31:20.375Z,3.42
2022-09-28T01:34:25.437Z,3.17
2022-09-28T01:38:27.094Z,4.40
2022-09-28T01:47:24.953Z,2.35
2022-09-28T01:52:35.815Z,2.22
2022-09-28T02:00:43.154Z,2.95
2022-09-28T02:55:50.501Z,2.05
2022-09-28T02:58:36.008Z,2.55
2022-09-28T03:01:37.464Z,1.60
2022-09-28T03:04:56.476Z,2.30
2022-09-28T03:08:09.535Z,1.65
2022-09-28T03:19:42.512Z,3.53
2022-09-28T03:23:19.826Z,2.45
2022-09-28T03:25:55.770Z,1.73
2022-09-28T03:28:44.335Z,2.22
2022-09-28T03:31:50.254Z,1.33
2022-09-28T03:34:32.419Z,1.88
2022-09-28T03:37:18.630Z,2.45
2022-09-28T03:40:10.251Z,1.75
2022-09-28T03:42:45.294Z,1.35
2022-09-28T03:45:15.587Z,1.63
2022-09-28T03:47:53.215Z,1.73
2022-09-28T03:50:25.718Z,3.22
2022-09-28T03:53:14.452Z,3.33
2022-09-28T03:55:59.020Z,2.17
2022-09-28T03:58:34.322Z,1.38
2022-09-28T04:01:38.894Z,2.47
2022-09-28T04:04:21.384Z,2.55
2022-09-28T04:07:03.976Z,1.30
2022-09-28T04:09:43.107Z,1.50
2022-09-28T04:12:32.980Z,1.30
2022-09-28T04:15:42.159Z,1.25
2022-09-28T04:18:15.071Z,1.40
2022-09-28T04:21:40.414Z,2.08
2022-09-28T04:24:30.905Z,1.67
2022-09-28T04:34:22.278Z,1.40
2022-09-28T04:37:35.802Z,2.53
2022-09-28T04:40:39.334Z,2.55
2022-09-28T04:43:30.148Z,1.45
2022-09-28T04:50:08.350Z,1.45
2022-09-28T04:53:18.691Z,1.30
2022-09-28T05:00:38.020Z,2.43
2022-09-28T05:04:13.652Z,1.48
2022-09-28T05:07:38.443Z,2.60
2022-09-28T05:10:32.566Z,3.08
2022-09-28T05:17:01.011Z,1.30
2022-09-28T05:20:11.151Z,1.65
2022-09-28T05:22:54.194Z,2.45
2022-09-28T05:26:11.005Z,1.50
2022-09-28T05:29:06.671Z,1.13
2022-09-28T05:32:07.211Z,1.70
2022-09-28T05:35:32.310Z,0.98
2022-09-28T05:38:16.662Z,2.80
2022-09-28T05:41:30.108Z,3.83
2022-09-28T05:45:02.826Z,1.42
2022-09-28T05:48:14.929Z,1.70
2022-09-28T05:51:24.125Z,1.42
2022-09-28T05:54:21.610Z,1.48
2022-09-28T05:57:07.734Z,1.55
2022-09-28T05:59:49.343Z,1.30
2022-09-28T06:02:33.359Z,1.73
2022-09-28T06:05:42.261Z,1.60
2022-09-28T06:08:32.450Z,1.57
2022-09-28T06:11:54.106Z,1.20
2022-09-28T06:15:14.781Z,2.45
2022-09-28T06:18:21.003Z,1.10
2022-09-28T06:21:19.111Z,1.45
2022-09-28T06:24:05.494Z,1.55
2022-09-28T06:26:38.630Z,3.33
2022-09-28T06:29:20.537Z,2.70
2022-09-28T06:31:54.636Z,1.48
2022-09-28T06:34:36.567Z,3.80
2022-09-28T06:37:09.078Z,1.30
2022-09-28T06:39:44.452Z,0.70
2022-09-28T06:42:16.189Z,1.65
2022-09-28T06:45:07.604Z,1.20
2022-09-28T06:48:07.893Z,1.80
2022-09-28T06:50:43.588Z,1.25
2022-09-28T06:53:33.042Z,1.20
2022-09-28T06:56:16.483Z,1.40
2022-09-28T06:58:48.632Z,1.55
2022-09-28T07:01:22.837Z,2.35
2022-09-28T07:04:11.727Z,1.48
2022-09-28T07:06:49.540Z,2.58
2022-09-28T07:14:26.821Z,1.30
2022-09-28T07:17:14.062Z,1.05
2022-09-28T07:19:45.835Z,1.35
2022-09-28T07:22:18.981Z,1.08
2022-09-28T07:24:52.934Z,2.38
2022-09-28T07:27:59.918Z,1.02
2022-09-28T07:30:51.615Z,1.60
2022-09-28T07:33:43.911Z,1.77
2022-09-28T07:36:21.066Z,1.25
2022-09-28T07:38:52.212Z,0.95
2022-09-28T07:41:32.634Z,0.85
2022-09-28T07:44:08.519Z,0.88
2022-09-28T07:46:47.220Z,1.10
2022-09-28T07:49:35.293Z,0.70
2022-09-28T07:52:53.835Z,2.22
2022-09-28T07:55:41.811Z,1.13
2022-09-28T07:58:25.595Z,0.80
2022-09-28T08:01:26.174Z,0.95
2022-09-28T08:03:59.140Z,0.60
2022-09-28T08:06:32.100Z,0.65
2022-09-28T08:09:08.591Z,0.70
2022-09-28T08:12:14.920Z,0.75
2022-09-28T08:15:52.736Z,1.00
2022-09-28T08:18:49.936Z,0.70
2022-09-28T08:21:43.889Z,2.53
2022-09-28T08:24:19.259Z,0.90
2022-09-28T08:26:51.386Z,0.80
2022-09-28T08:29:22.165Z,0.80
2022-09-28T08:31:51.919Z,0.70
2022-09-28T08:34:25.142Z,2.85
2022-09-28T08:37:00.559Z,0.80
2022-09-28T08:39:52.747Z,1.30
2022-09-28T08:42:41.450Z,1.00
2022-09-28T08:45:41.894Z,2.70
2022-09-28T08:49:13.370Z,0.93
2022-09-28T08:52:13.882Z,1.05
2022-09-28T08:55:35.479Z,1.02
2022-09-28T08:58:12.053Z,1.30
2022-09-28T09:00:47.422Z,0.85
2022-09-28T09:03:50.253Z,1.02
2022-09-28T09:07:33.923Z,0.70
2022-09-28T09:10:21.134Z,1.00
2022-09-28T09:13:03.716Z,0.90
2022-09-28T09:15:46.656Z,0.80
2022-09-28T09:18:38.790Z,1.23
2022-09-28T09:21:49.571Z,1.23
2022-09-28T09:24:39.630Z,1.27
2022-09-28T09:27:31.437Z,2.50
2022-09-28T09:30:11.037Z,1.70
2022-09-28T09:33:04.933Z,2.47
2022-09-28T09:36:01.911Z,1.92
2022-09-28T09:39:07.084Z,2.13
2022-09-28T09:42:30.857Z,2.95
2022-09-28T09:45:47.099Z,2.50
2022-09-28T09:49:08.351Z,2.08
2022-09-28T09:51:50.314Z,2.17
2022-09-28T09:54:30.848Z,2.65
2022-09-28T09:57:08.879Z,1.73
2022-09-28T09:59:50.608Z,1.60
2022-09-28T10:02:30.558Z,1.60
2022-09-28T10:07:55.243Z,1.30
2022-09-28T10:10:29.645Z,2.47
2022-09-28T10:13:14.912Z,1.40
2022-09-28T10:15:50.753Z,1.40
2022-09-28T10:18:31.114Z,1.58
2022-09-28T10:21:37.850Z,2.05
2022-09-28T10:24:33.098Z,3.17
2022-09-28T10:27:08.801Z,2.22
2022-09-28T10:29:55.598Z,2.03
2022-09-28T10:32:28.783Z,2.77
2022-09-28T10:35:16.127Z,2.05
2022-09-28T10:37:55.484Z,2.42
2022-09-28T10:40:44.865Z,3.10
2022-09-28T10:43:24.125Z,3.03
2022-09-28T10:46:07.828Z,3.22
2022-09-28T10:48:52.350Z,2.80
2022-09-28T10:51:41.975Z,2.47
2022-09-28T10:54:19.735Z,2.28
2022-09-28T10:56:53.888Z,3.42
2022-09-28T10:59:41.079Z,2.95
2022-09-28T11:02:36.970Z,4.30
2022-09-28T11:05:24.227Z,2.03
2022-09-28T11:08:00.962Z,5.15
2022-09-28T11:10:37.714Z,3.15
2022-09-28T11:13:14.349Z,2.20
2022-09-28T11:18:32.802Z,2.67
2022-09-28T11:21:16.133Z,3.58
2022-09-28T11:24:07.623Z,2.33
2022-09-28T11:26:47.288Z,1.88
2022-09-28T11:29:28.042Z,3.13
2022-09-28T11:32:30.958Z,3.83
2022-09-28T11:35:46.740Z,4.97
2022-09-28T11:38:37.384Z,5.28
2022-09-28T11:41:32.910Z,4.10
2022-09-28T11:44:23.509Z,3.08
2022-09-28T11:47:35.665Z,2.80
2022-09-28T11:51:27.498Z,3.88
2022-09-28T11:58:32.173Z,5.82
2022-09-28T12:11:43.003Z,2.88
2022-09-28T12:14:36.747Z,3.30
2022-09-28T12:17:22.598Z,2.17
2022-09-28T12:19:58.555Z,2.15
2022-09-28T12:22:35.090Z,2.33
2022-09-28T12:25:08.625Z,2.80
2022-09-28T12:27:46.673Z,3.55
2022-09-28T12:30:20.805Z,4.50
2022-09-28T12:32:55.606Z,2.03
2022-09-28T12:35:38.013Z,2.90
2022-09-28T12:38:28.664Z,2.67
2022-09-28T12:41:05.723Z,2.53
2022-09-28T12:43:49.705Z,3.25
2022-09-28T12:46:49.282Z,3.50
2022-09-28T12:53:00.768Z,2.85
2022-09-28T12:55:56.677Z,3.50
2022-09-28T12:58:50.331Z,6.00
2022-09-28T13:01:43.822Z,3.25
2022-09-28T13:05:24.385Z,4.07
2022-09-28T13:08:07.619Z,13.23
2022-09-28T13:10:57.970Z,5.70
2022-09-28T13:13:42.661Z,5.80
2022-09-28T13:16:30.984Z,5.53
2022-09-28T13:19:17.205Z,3.92
2022-09-28T13:21:58.507Z,4.57
2022-09-28T13:28:27.265Z,4.18
2022-09-28T13:31:14.304Z,5.60
2022-09-28T13:34:28.937Z,6.30
2022-09-28T13:37:45.246Z,4.07
2022-09-28T13:41:39.127Z,5.43
2022-09-28T13:45:04.832Z,2.75
2022-09-28T13:48:20.478Z,5.68
2022-09-28T13:51:21.462Z,3.10
2022-09-28T13:54:43.713Z,4.40
2022-09-28T13:57:27.755Z,5.68
2022-09-28T14:04:13.138Z,5.43
2022-09-28T14:06:59.730Z,5.45
2022-09-28T14:09:54.507Z,3.65
2022-09-28T14:13:25.939Z,5.45
2022-09-28T14:16:47.463Z,4.55
2022-09-28T14:19:52.573Z,4.28
2022-09-28T14:22:42.844Z,5.35
2022-09-28T14:25:43.201Z,9.05
2022-09-28T14:31:39.770Z,5.70
2022-09-28T14:34:49.540Z,3.72
2022-09-28T14:37:57.340Z,4.63
2022-09-28T14:41:25.170Z,5.13
2022-09-28T14:49:12.788Z,3.17
2022-09-28T14:52:13.373Z,4.43
2022-09-28T14:55:19.967Z,3.58
2022-09-28T14:57:56.881Z,4.45
2022-09-28T15:00:34.994Z,5.85
2022-09-28T15:03:12.022Z,3.05
2022-09-28T15:05:56.176Z,4.53
2022-09-28T15:08:38.714Z,5.82
2022-09-28T15:11:16.455Z,4.05
2022-09-28T15:13:46.686Z,4.72
2022-09-28T15:16:20.926Z,4.53
2022-09-28T15:19:19.073Z,4.95
2022-09-28T15:21:51.561Z,7.47
2022-09-28T15:24:31.679Z,5.00
2022-09-28T15:27:30.122Z,6.78
2022-09-28T15:30:01.466Z,4.15
2022-09-28T15:32:58.356Z,5.35
2022-09-28T15:36:03.031Z,7.10
2022-09-28T15:38:35.097Z,5.82
2022-09-28T15:41:59.729Z,5.97
2022-09-28T15:45:29.387Z,7.05
2022-09-28T15:48:28.120Z,10.15
2022-09-28T15:51:11.147Z,9.52
2022-09-28T15:53:48.733Z,6.53
2022-09-28T15:56:18.467Z,10.70
2022-09-28T15:59:11.758Z,7.95
2022-09-28T16:01:45.585Z,8.20
2022-09-28T16:04:37.889Z,8.52
2022-09-28T16:07:36.878Z,8.63
2022-09-28T16:10:34.227Z,7.07
2022-09-28T16:13:20.852Z,9.38
2022-09-28T16:16:10.577Z,6.60
2022-09-28T16:18:49.487Z,7.03
2022-09-28T16:21:44.416Z,6.40
2022-09-28T16:24:23.476Z,6.80
2022-09-28T16:26:59.796Z,6.03
2022-09-28T16:29:40.228Z,5.72
2022-09-28T16:32:38.633Z,7.65
2022-09-28T16:35:50.706Z,8.65
2022-09-28T16:38:22.506Z,9.73
2022-09-28T16:40:54.490Z,6.97
2022-09-28T16:43:28.091Z,9.48
2022-09-28T16:46:01.824Z,10.27
2022-09-28T16:48:40.007Z,8.27
2022-09-28T16:51:20.631Z,7.25
2022-09-28T16:55:22.763Z,7.30
2022-09-28T16:57:55.911Z,6.85
2022-09-28T17:00:29.541Z,7.85
2022-09-28T17:03:00.107Z,8.07
2022-09-28T17:05:29.863Z,7.18
2022-09-28T17:08:17.504Z,7.00
2022-09-28T17:11:15.789Z,8.23
2022-09-28T17:14:18.958Z,6.60
2022-09-28T17:17:08.719Z,10.13
2022-09-28T17:20:19.106Z,8.13
2022-09-28T17:23:06.282Z,8.88
2022-09-28T17:25:37.985Z,8.57
2022-09-28T17:28:20.122Z,10.23
2022-09-28T17:31:12.362Z,8.95
2022-09-28T17:34:25.545Z,8.52
2022-09-28T17:50:46.598Z,9.90
2022-09-28T17:53:20.438Z,10.52
2022-09-28T17:56:24.389Z,8.35
2022-09-28T17:59:17.312Z,14.55
2022-09-28T18:01:52.354Z,8.98
2022-09-28T18:04:50.846Z,11.75
2022-09-28T18:07:19.212Z,11.55
2022-09-28T18:09:57.075Z,10.10
2022-09-28T18:12:43.719Z,12.85
2022-09-28T18:15:15.876Z,12.60
2022-09-28T18:17:48.575Z,12.00
2022-09-28T18:20:21.646Z,10.75
2022-09-28T18:22:58.203Z,11.02
2022-09-28T18:25:29.919Z,8.73
2022-09-28T18:28:16.473Z,7.93
2022-09-28T18:30:50.572Z,12.32
2022-09-28T18:33:21.111Z,11.00
2022-09-28T18:35:54.510Z,10.60
2022-09-28T18:38:26.243Z,9.43
2022-09-28T18:40:57.371Z,9.27
2022-09-28T18:43:45.869Z,7.03
2022-09-28T18:46:15.713Z,8.90
2022-09-28T18:48:47.115Z,9.38
2022-09-28T18:51:17.289Z,5.93
2022-09-28T18:54:17.879Z,7.63
2022-09-28T18:56:48.844Z,6.57
2022-09-28T18:59:18.902Z,8.60
2022-09-28T19:01:50.112Z,12.60
2022-09-28T19:04:46.471Z,7.07
2022-09-28T19:07:18.236Z,7.55
2022-09-28T19:09:50.570Z,7.38
2022-09-28T19:12:21.889Z,5.95
2022-09-28T19:14:51.933Z,4.63
2022-09-28T19:17:22.288Z,6.18
2022-09-28T19:19:53.651Z,6.78
2022-09-28T19:22:31.934Z,7.07
2022-09-28T19:25:03.991Z,9.45
2022-09-28T19:27:37.520Z,7.45
2022-09-28T19:30:09.465Z,5.68
2022-09-28T19:32:39.208Z,9.27
2022-09-28T19:35:09.707Z,8.93
2022-09-28T19:37:40.123Z,7.65
2022-09-28T19:40:12.164Z,10.30
2022-09-28T19:42:41.794Z,9.68
2022-09-28T19:45:14.223Z,11.90
2022-09-28T19:47:49.409Z,10.68
2022-09-28T19:50:22.541Z,11.48
2022-09-28T19:52:53.438Z,7.65
2022-09-28T19:55:25.402Z,9.95
2022-09-28T19:57:56.801Z,11.82
2022-09-28T20:00:27.430Z,9.60
2022-09-28T20:03:00.060Z,10.55
2022-09-28T20:05:29.448Z,12.93
2022-09-28T20:07:58.901Z,14.00
2022-09-28T20:10:30.827Z,13.48
2022-09-28T20:13:00.930Z,16.50
2022-09-28T20:15:30.305Z,14.50
2022-09-28T20:17:59.545Z,14.80
2022-09-28T20:20:28.594Z,12.38
2022-09-28T20:22:59.365Z,9.82
2022-09-28T20:25:30.404Z,11.70
2022-09-28T20:28:06.211Z,14.10
2022-09-28T20:30:38.685Z,11.88
2022-09-28T20:33:19.026Z,14.43
2022-09-28T20:35:52.599Z,9.20
2022-09-28T20:38:21.679Z,13.05
2022-09-28T20:40:58.634Z,10.13
2022-09-28T20:43:30.195Z,12.98
2022-09-28T20:46:00.943Z,8.52
2022-09-28T20:48:31.077Z,12.57
2022-09-28T20:51:03.393Z,12.68
2022-09-28T20:53:37.191Z,9.20
2022-09-28T20:56:16.610Z,9.55
2022-09-28T20:58:48.036Z,6.85
2022-09-28T21:01:19.573Z,9.15
2022-09-28T21:03:50.964Z,11.15
2022-09-28T21:06:26.263Z,8.73
2022-09-28T21:08:57.632Z,5.00
2022-09-28T21:11:30.878Z,8.85
2022-09-28T21:14:02.872Z,8.57
2022-09-28T21:16:33.874Z,13.27
2022-09-28T21:19:04.696Z,8.70
2022-09-28T21:21:34.170Z,8.10
2022-09-28T21:24:29.630Z,9.65
2022-09-28T21:27:00.405Z,7.13
2022-09-28T21:29:40.744Z,10.18
2022-09-28T21:32:10.670Z,10.13
2022-09-28T21:34:40.139Z,14.38
2022-09-28T21:37:09.527Z,9.82
2022-09-28T21:39:38.965Z,8.50
2022-09-28T21:42:11.019Z,8.93
2022-09-28T21:44:46.301Z,9.43
2022-09-28T21:47:19.638Z,9.73
2022-09-28T21:49:49.113Z,8.43
2022-09-28T21:52:18.298Z,10.10
2022-09-28T21:54:48.069Z,7.78
2022-09-28T21:57:20.251Z,6.80
2022-09-28T21:59:57.318Z,10.30
2022-09-28T22:02:34.147Z,8.23
2022-09-28T22:05:03.521Z,10.15
2022-09-28T22:07:32.982Z,7.15
2022-09-28T22:10:02.469Z,6.75
2022-09-28T22:12:34.284Z,9.48
2022-09-28T22:15:03.714Z,8.23
2022-09-28T22:17:33.292Z,7.97
2022-09-28T22:20:03.036Z,9.80
2022-09-28T22:22:32.872Z,10.40
2022-09-28T22:25:02.268Z,10.75
2022-09-28T22:27:33.889Z,10.80
2022-09-28T22:30:03.178Z,11.70
2022-09-28T22:32:32.588Z,9.82
2022-09-28T22:35:02.276Z,14.75
2022-09-28T22:37:33.637Z,14.30
2022-09-28T22:40:20.489Z,12.75
2022-09-28T22:42:51.532Z,11.88
2022-09-28T22:45:20.809Z,10.95
2022-09-28T22:47:49.854Z,11.07
2022-09-28T22:50:20.251Z,8.27
2022-09-28T22:52:49.564Z,11.50
2022-09-28T22:55:18.801Z,10.55
2022-09-28T22:57:48.178Z,14.73
2022-09-28T23:00:19.238Z,14.23
2022-09-28T23:02:49.036Z,12.43
2022-09-28T23:05:18.450Z,15.07
2022-09-28T23:07:47.737Z,13.70
2022-09-28T23:10:17.314Z,14.85
2022-09-28T23:12:46.769Z,14.93
2022-09-28T23:15:16.119Z,15.05
2022-09-28T23:17:46.731Z,13.00
2022-09-28T23:20:15.941Z,13.57
2022-09-28T23:22:47.570Z,15.85
2022-09-28T23:25:33.403Z,13.40
2022-09-28T23:28:02.967Z,12.35
2022-09-28T23:30:32.642Z,13.43
2022-09-28T23:33:03.175Z,13.25
2022-09-28T23:35:32.532Z,15.07
2022-09-28T23:38:01.719Z,15.30
2022-09-28T23:40:30.836Z,12.98
2022-09-28T23:43:00.503Z,13.57
2022-09-28T23:45:29.510Z,14.32
2022-09-28T23:47:58.642Z,14.30
2022-09-28T23:50:29.236Z,10.52
2022-09-28T23:52:58.230Z,12.00
2022-09-28T23:55:29.501Z,10.25
2022-09-28T23:57:59.277Z,10.43
